Time;durP1;ratioP1;P1;durP2;ratioP2;P2;SDS_P1;SDS_P2;PMS_P1;PMS_P2;Temp;Humidity;BMP_temperature;BMP_pressure;BME280_temperature;BME280_humidity;BME280_pressure;Samples;Min_cycle;Max_cycle;Signal;HPM_P1;HPM_P2
2023/11/04 00:00:27;;;;;;;1.83;1.23;;;;;;;4.12;88.46;93415.56;6127284;23;20189;-81
2023/11/04 00:02:53;;;;;;;1.77;1.47;;;;;;;4.20;87.59;93406.09;6127317;23;20170;-82
2023/11/04 00:05:18;;;;;;;1.47;1.17;;;;;;;4.19;87.84;93407.06;6126714;23;20151;-83
2023/11/04 00:07:43;;;;;;;3.60;1.57;;;;;;;4.15;86.82;93413.50;6103135;23;20185;-81
2023/11/04 00:10:10;;;;;;;1.77;1.30;;;;;;;4.14;87.55;93416.22;6102961;23;20186;-82
2023/11/04 00:12:35;;;;;;;1.57;1.30;;;;;;;4.07;87.57;93412.72;6129280;23;20183;-83
2023/11/04 00:15:01;;;;;;;4.13;1.50;;;;;;;4.00;88.11;93409.97;6128978;23;20179;-83
2023/11/04 00:17:26;;;;;;;4.67;1.33;;;;;;;4.04;88.67;93405.31;6103519;23;20202;-83
2023/11/04 00:19:52;;;;;;;2.60;1.37;;;;;;;4.12;88.48;93402.72;6105277;23;20222;-81
2023/11/04 00:22:18;;;;;;;2.47;1.30;;;;;;;4.09;89.03;93405.63;6105532;23;20163;-83
2023/11/04 00:24:43;;;;;;;1.97;1.30;;;;;;;4.28;88.55;93404.50;6121287;23;20158;-80
2023/11/04 00:27:09;;;;;;;2.57;1.30;;;;;;;4.34;88.62;93412.38;6154121;23;20155;-82
2023/11/04 00:29:34;;;;;;;1.70;1.03;;;;;;;4.39;88.75;93407.53;6154438;23;20186;-81
2023/11/04 00:31:59;;;;;;;1.50;1.10;;;;;;;4.51;88.09;93405.44;6130178;23;20199;-82
2023/11/04 00:34:26;;;;;;;5.33;1.30;;;;;;;4.59;88.29;93407.97;6128796;23;20159;-82
2023/11/04 00:36:51;;;;;;;3.30;1.50;;;;;;;4.60;87.94;93398.53;6123630;23;20592;-82
2023/11/04 00:39:17;;;;;;;2.80;1.20;;;;;;;4.63;87.95;93409.28;6129748;23;20180;-83
2023/11/04 00:41:43;;;;;;;2.70;1.30;;;;;;;4.71;87.73;93416.19;6105363;23;20198;-84
2023/11/04 00:44:08;;;;;;;3.57;1.37;;;;;;;4.74;87.47;93408.13;6156263;23;20157;-82
2023/11/04 00:46:34;;;;;;;1.73;1.30;;;;;;;4.70;88.09;93415.38;6106072;23;20622;-82
2023/11/04 00:48:59;;;;;;;2.20;1.40;;;;;;;4.79;87.55;93409.25;6106304;23;20202;-83
2023/11/04 00:51:26;;;;;;;3.30;1.43;;;;;;;4.78;87.76;93407.66;6130826;23;20212;-82
2023/11/04 00:53:52;;;;;;;2.07;1.30;;;;;;;4.83;87.10;93405.38;6105532;23;20600;-81
2023/11/04 00:56:17;;;;;;;2.77;1.50;;;;;;;4.90;87.05;93397.00;6128765;23;20202;-83
2023/11/04 00:58:42;;;;;;;1.73;1.50;;;;;;;4.88;87.32;93401.50;6105111;23;20513;-83
2023/11/04 01:01:08;;;;;;;1.87;1.77;;;;;;;4.90;86.65;93395.22;6104575;23;20527;-83
2023/11/04 01:03:34;;;;;;;3.60;2.33;;;;;;;4.90;86.91;93407.28;6130508;23;20817;-83
2023/11/04 01:05:59;;;;;;;2.37;2.17;;;;;;;4.78;87.59;93406.84;6128535;23;20488;-82
2023/11/04 01:08:24;;;;;;;2.63;1.80;;;;;;;4.89;86.83;93401.34;6104740;23;20190;-82
2023/11/04 01:10:50;;;;;;;1.77;1.40;;;;;;;4.86;87.12;93399.09;6105634;23;20242;-82
2023/11/04 01:13:15;;;;;;;2.03;1.60;;;;;;;4.90;86.97;93397.81;6105649;23;20171;-82
2023/11/04 01:15:40;;;;;;;2.33;1.40;;;;;;;4.90;87.19;93397.00;6104769;23;20176;-82
2023/11/04 01:18:06;;;;;;;2.67;1.40;;;;;;;4.94;86.92;93398.25;6103661;23;20211;-82
2023/11/04 01:20:32;;;;;;;2.30;1.73;;;;;;;4.94;87.28;93396.47;6129797;23;20639;-83
2023/11/04 01:22:57;;;;;;;4.40;1.50;;;;;;;5.00;87.63;93405.31;6104680;23;20159;-81
2023/11/04 01:25:22;;;;;;;3.50;1.60;;;;;;;4.93;87.39;93400.03;6129022;23;20144;-81
2023/11/04 01:27:48;;;;;;;3.50;1.90;;;;;;;4.94;86.98;93403.41;6105305;23;20165;-83
2023/11/04 01:30:13;;;;;;;1.77;1.50;;;;;;;4.97;87.07;93397.94;6129045;23;20193;-82
2023/11/04 01:32:39;;;;;;;2.43;1.70;;;;;;;4.99;87.25;93398.56;6080380;23;20171;-81
2023/11/04 01:35:05;;;;;;;2.23;1.70;;;;;;;4.98;87.29;93399.53;6104202;23;20175;-81
2023/11/04 01:37:30;;;;;;;3.33;1.97;;;;;;;4.98;87.35;93392.63;6080455;23;20206;-82
2023/11/04 01:39:56;;;;;;;2.20;1.53;;;;;;;4.82;87.95;93384.97;6128456;23;20182;-82
2023/11/04 01:42:21;;;;;;;2.30;1.40;;;;;;;4.82;87.74;93385.75;6104353;23;20170;-82
2023/11/04 01:44:46;;;;;;;5.50;1.60;;;;;;;4.70;87.72;93379.38;6103183;23;20164;-82
2023/11/04 01:47:13;;;;;;;4.67;1.70;;;;;;;4.76;87.62;93376.13;6104787;23;20168;-81
2023/11/04 01:49:38;;;;;;;1.83;1.70;;;;;;;4.66;87.74;93374.72;6104181;23;20182;-82
2023/11/04 01:52:04;;;;;;;2.07;1.87;;;;;;;4.63;87.53;93375.84;6104000;23;20210;-83
2023/11/04 01:54:30;;;;;;;2.20;1.50;;;;;;;4.54;87.46;93380.22;6128127;23;20541;-82
2023/11/04 01:56:56;;;;;;;1.83;1.43;;;;;;;4.50;87.28;93389.19;6128756;23;20234;-82
2023/11/04 01:59:22;;;;;;;2.53;1.53;;;;;;;4.51;88.11;93390.84;6104306;23;20198;-81
2023/11/04 02:01:48;;;;;;;1.70;1.33;;;;;;;4.54;88.50;93381.97;6127876;23;20458;-81
2023/11/04 02:04:14;;;;;;;2.97;1.43;;;;;;;4.50;88.98;93384.06;6128436;23;20170;-81
2023/11/04 02:06:39;;;;;;;2.40;1.73;;;;;;;4.59;88.47;93378.91;6104076;23;20171;-82
2023/11/04 02:09:06;;;;;;;1.63;1.47;;;;;;;4.58;88.62;93374.72;6128541;23;20205;-81
2023/11/04 02:11:31;;;;;;;1.90;1.40;;;;;;;4.62;88.36;93369.13;6103896;23;20166;-82
2023/11/04 02:13:56;;;;;;;3.03;1.67;;;;;;;4.43;89.50;93372.84;6104174;23;20192;-80
2023/11/04 02:16:22;;;;;;;2.27;1.60;;;;;;;4.47;88.99;93365.59;6153100;23;20186;-80
2023/11/04 02:18:47;;;;;;;3.23;1.50;;;;;;;4.46;88.95;93366.56;6128450;23;20193;-81
2023/11/04 02:21:13;;;;;;;2.00;1.23;;;;;;;4.37;89.05;93362.41;6103868;23;20159;-83
2023/11/04 02:23:39;;;;;;;2.10;1.53;;;;;;;4.38;88.89;93364.03;6103485;23;20185;-83
2023/11/04 02:26:04;;;;;;;1.30;1.20;;;;;;;4.34;89.57;93362.75;6103258;23;20225;-79
2023/11/04 02:28:30;;;;;;;1.70;1.30;;;;;;;4.24;89.27;93374.00;6128679;23;20160;-82
2023/11/04 02:30:55;;;;;;;2.40;1.50;;;;;;;4.18;89.87;93369.50;6103987;23;20281;-80
2023/11/04 02:33:20;;;;;;;2.20;1.40;;;;;;;4.12;90.07;93370.16;6128849;23;20282;-81
2023/11/04 02:35:45;;;;;;;1.30;1.17;;;;;;;4.14;90.15;93372.53;6103441;23;20257;-80
2023/11/04 02:38:11;;;;;;;2.37;1.50;;;;;;;4.11;90.33;93360.84;6103727;23;20258;-81
2023/11/04 02:40:36;;;;;;;3.33;1.60;;;;;;;4.16;90.04;93366.31;6128106;23;20546;-81
2023/11/04 02:43:02;;;;;;;1.40;1.30;;;;;;;4.07;89.92;93366.47;6128320;23;20190;-81
2023/11/04 02:45:28;;;;;;;4.90;1.50;;;;;;;4.05;90.09;93353.78;6127622;23;20152;-82
2023/11/04 02:47:54;;;;;;;2.10;1.50;;;;;;;4.09;89.83;93354.25;6104008;23;20162;-81
2023/11/04 02:50:19;;;;;;;2.87;1.43;;;;;;;3.98;90.33;93351.06;6104241;23;20202;-82
2023/11/04 02:52:44;;;;;;;2.50;1.80;;;;;;;3.88;90.69;93350.41;6127887;23;20154;-81
2023/11/04 02:55:10;;;;;;;2.37;1.67;;;;;;;3.94;90.79;93356.66;6127625;23;20182;-81
2023/11/04 02:57:35;;;;;;;2.70;1.43;;;;;;;3.89;90.81;93357.16;6103986;23;20159;-82
2023/11/04 03:00:01;;;;;;;2.53;1.63;;;;;;;3.77;91.42;93352.50;6103649;23;20175;-82
2023/11/04 03:02:26;;;;;;;2.93;1.70;;;;;;;3.83;90.97;93350.09;6103145;23;20169;-81
2023/11/04 03:04:53;;;;;;;2.07;1.50;;;;;;;3.83;90.99;93344.97;6103371;23;20161;-82
2023/11/04 03:07:19;;;;;;;1.50;1.40;;;;;;;3.84;90.80;93349.13;6103922;23;20210;-83
2023/11/04 03:09:44;;;;;;;1.80;1.30;;;;;;;3.80;91.27;93357.28;6104215;23;20176;-82
2023/11/04 03:12:10;;;;;;;1.83;1.60;;;;;;;3.78;91.65;93343.81;6103479;23;20201;-82
2023/11/04 03:14:35;;;;;;;1.97;1.57;;;;;;;3.82;91.70;93347.69;6102750;23;20249;-82
2023/11/04 03:17:00;;;;;;;1.80;1.43;;;;;;;3.81;91.49;93346.09;6126767;23;20187;-80
2023/11/04 03:19:26;;;;;;;2.80;1.57;;;;;;;3.82;91.67;93350.25;6128277;23;20197;-83
2023/11/04 03:21:52;;;;;;;1.73;1.40;;;;;;;3.83;91.66;93346.72;6128123;23;20163;-83
2023/11/04 03:24:17;;;;;;;1.20;1.13;;;;;;;3.89;91.43;93339.19;6128049;23;20543;-82
2023/11/04 03:26:43;;;;;;;1.60;1.50;;;;;;;3.88;91.92;93332.44;6102716;23;20305;-83
2023/11/04 03:29:08;;;;;;;1.67;1.30;;;;;;;3.92;92.16;93331.16;6103363;23;20175;-81
2023/11/04 03:31:34;;;;;;;2.70;1.43;;;;;;;3.98;92.43;93332.28;6128393;23;20136;-83
2023/11/04 03:33:59;;;;;;;2.13;1.67;;;;;;;4.03;92.26;93326.66;6127311;23;20609;-81
2023/11/04 03:36:25;;;;;;;2.23;1.33;;;;;;;3.97;92.17;93322.94;6102705;23;20181;-81
2023/11/04 03:38:50;;;;;;;2.37;1.47;;;;;;;4.04;91.81;93312.84;6103715;23;20193;-81
2023/11/04 03:41:16;;;;;;;3.00;1.40;;;;;;;3.96;91.64;93313.66;6128073;23;20158;-82
2023/11/04 03:43:41;;;;;;;2.43;1.50;;;;;;;3.96;92.02;93314.44;6154012;23;20190;-81
2023/11/04 03:46:07;;;;;;;1.50;1.40;;;;;;;3.90;92.01;93311.75;6166788;23;20146;-82
2023/11/04 03:48:33;;;;;;;2.00;1.53;;;;;;;3.89;92.46;93310.16;6151671;23;20158;-83
2023/11/04 03:50:58;;;;;;;1.73;1.60;;;;;;;3.90;92.52;93314.31;6109368;23;20179;-83
2023/11/04 03:53:23;;;;;;;2.10;1.43;;;;;;;3.83;92.74;93303.09;6133877;23;20163;-83
2023/11/04 03:55:49;;;;;;;1.97;1.80;;;;;;;3.85;92.99;93301.16;6157675;23;20256;-82
2023/11/04 03:58:14;;;;;;;2.13;1.63;;;;;;;3.81;93.17;93295.53;6109724;23;20194;-83
2023/11/04 04:00:40;;;;;;;1.83;1.70;;;;;;;3.84;93.33;93299.53;6159773;23;20178;-83
2023/11/04 04:03:06;;;;;;;1.77;1.50;;;;;;;3.83;92.83;93303.88;6133597;23;20605;-82
2023/11/04 04:05:32;;;;;;;2.70;1.40;;;;;;;3.81;93.41;93295.53;6110350;23;20162;-83
2023/11/04 04:07:57;;;;;;;2.40;1.63;;;;;;;3.82;93.42;93291.22;6134542;23;20163;-82
2023/11/04 04:10:23;;;;;;;2.53;1.70;;;;;;;3.78;93.83;93289.91;6133515;23;20226;-82
2023/11/04 04:12:48;;;;;;;2.80;1.87;;;;;;;3.80;93.12;93287.97;6134463;23;20170;-84
2023/11/04 04:15:14;;;;;;;4.00;2.00;;;;;;;3.79;93.67;93289.75;6133809;23;20175;-83
2023/11/04 04:17:39;;;;;;;2.00;1.80;;;;;;;3.82;93.61;93280.94;6131128;23;20163;-84
2023/11/04 04:20:05;;;;;;;2.03;1.70;;;;;;;3.78;94.00;93279.66;6106592;23;20189;-82
2023/11/04 04:22:30;;;;;;;4.27;2.10;;;;;;;3.72;93.97;93275.97;6105996;23;20170;-82
2023/11/04 04:24:55;;;;;;;3.43;1.87;;;;;;;3.80;93.75;93282.84;6156515;23;20236;-81
2023/11/04 04:27:21;;;;;;;2.27;1.80;;;;;;;3.78;93.53;93277.06;6106781;23;20645;-84
2023/11/04 04:29:46;;;;;;;2.80;2.00;;;;;;;3.73;94.34;93264.75;6132744;23;20194;-83
2023/11/04 04:32:12;;;;;;;1.70;1.60;;;;;;;3.76;94.61;93263.59;6158184;23;20152;-82
2023/11/04 04:34:37;;;;;;;2.00;1.80;;;;;;;3.75;94.33;93262.00;6132103;23;20221;-83
2023/11/04 04:37:03;;;;;;;2.27;1.63;;;;;;;3.81;94.03;93249.34;6132542;23;20168;-83
2023/11/04 04:39:28;;;;;;;2.60;2.40;;;;;;;3.79;94.42;93242.75;6108073;23;20179;-82
2023/11/04 04:41:53;;;;;;;3.00;1.40;;;;;;;3.74;94.02;93243.25;6131987;23;20158;-84
2023/11/04 04:44:19;;;;;;;2.50;1.67;;;;;;;3.80;94.54;93245.16;6131796;23;20596;-83
2023/11/04 04:46:44;;;;;;;1.70;1.60;;;;;;;3.78;94.55;93243.72;6130899;23;20151;-82
2023/11/04 04:49:09;;;;;;;1.73;1.63;;;;;;;3.83;94.83;93237.13;6107269;23;20519;-82
2023/11/04 04:51:35;;;;;;;4.13;1.80;;;;;;;3.85;94.29;93242.91;6131390;23;20158;-81
2023/11/04 04:54:00;;;;;;;1.77;1.57;;;;;;;3.79;95.26;93237.59;6106741;23;20218;-80
2023/11/04 04:56:26;;;;;;;3.93;1.87;;;;;;;3.85;94.12;93236.97;6105622;23;20635;-82
2023/11/04 04:58:52;;;;;;;1.70;1.60;;;;;;;3.81;94.08;93230.56;6131275;23;20282;-83
2023/11/04 05:01:21;;;;;;;2.07;1.77;;;;;;;3.80;94.79;93236.63;6130877;23;20699;-82
2023/11/04 05:03:47;;;;;;;1.93;1.50;;;;;;;3.79;94.37;93235.03;6130617;23;20285;-81
2023/11/04 05:06:12;;;;;;;1.83;1.67;;;;;;;3.79;95.34;93235.84;6129189;23;20925;-81
2023/11/04 05:08:38;;;;;;;2.70;1.90;;;;;;;3.79;94.71;93235.03;6130035;23;20158;-82
2023/11/04 05:11:03;;;;;;;2.00;1.40;;;;;;;3.68;95.55;93234.41;6130000;23;20250;-82
2023/11/04 05:13:29;;;;;;;2.57;1.70;;;;;;;3.73;95.45;93228.00;6105689;23;20159;-81
2023/11/04 05:15:55;;;;;;;2.20;1.97;;;;;;;3.79;94.87;93225.56;6129599;23;20171;-81
2023/11/04 05:18:20;;;;;;;1.50;1.40;;;;;;;3.81;94.95;93215.97;6129040;23;20158;-82
2023/11/04 05:20:46;;;;;;;2.63;1.80;;;;;;;3.77;95.48;93226.69;6157070;23;20179;-81
2023/11/04 05:23:11;;;;;;;2.20;1.43;;;;;;;3.72;95.91;93218.72;6130466;23;20543;-83
2023/11/04 05:25:37;;;;;;;1.60;1.33;;;;;;;3.78;95.64;93223.97;6106195;23;20155;-81
2023/11/04 05:28:02;;;;;;;2.43;1.53;;;;;;;3.78;95.41;93218.03;6131372;23;20152;-81
2023/11/04 05:30:28;;;;;;;1.30;1.20;;;;;;;3.76;96.90;93214.84;6130507;23;20224;-82
2023/11/04 05:32:53;;;;;;;1.30;1.20;;;;;;;3.81;95.90;93212.59;6130591;23;20183;-81
2023/11/04 05:35:18;;;;;;;1.97;1.30;;;;;;;3.90;95.59;93209.03;6105506;23;20646;-83
2023/11/04 05:37:44;;;;;;;2.07;1.30;;;;;;;3.89;95.44;93212.59;6105776;23;20192;-82
2023/11/04 05:40:10;;;;;;;1.23;1.10;;;;;;;3.96;95.40;93200.66;6129744;23;20198;-83
2023/11/04 05:42:35;;;;;;;2.17;1.40;;;;;;;4.01;94.58;93202.75;6129843;23;20225;-82
2023/11/04 05:45:01;;;;;;;1.60;1.33;;;;;;;3.92;94.95;93199.41;6103755;23;20238;-83
2023/11/04 05:47:26;;;;;;;1.47;1.37;;;;;;;3.92;94.75;93200.19;6104775;23;20163;-82
2023/11/04 05:49:51;;;;;;;2.23;1.00;;;;;;;3.91;94.95;93196.03;6154821;23;20577;-81
2023/11/04 05:52:17;;;;;;;2.43;1.17;;;;;;;3.89;94.53;93190.28;6128919;23;20525;-83
2023/11/04 05:54:42;;;;;;;3.03;1.10;;;;;;;3.93;94.43;93193.28;6128519;23;20850;-82
2023/11/04 05:57:08;;;;;;;1.27;1.07;;;;;;;3.84;94.37;93184.00;6104918;23;20171;-81
2023/11/04 05:59:33;;;;;;;2.47;1.23;;;;;;;3.83;94.36;93184.97;6129498;23;20203;-81
2023/11/04 06:01:58;;;;;;;1.00;1.00;;;;;;;3.85;93.97;93185.63;6105143;23;20170;-81
2023/11/04 06:04:24;;;;;;;1.50;1.37;;;;;;;3.82;93.79;93180.81;6134041;23;20155;-81
2023/11/04 06:06:49;;;;;;;1.63;1.00;;;;;;;3.79;93.83;93174.22;6110719;23;20162;-81
2023/11/04 06:09:14;;;;;;;1.63;1.10;;;;;;;3.78;93.46;93169.25;6135682;23;20639;-83
2023/11/04 06:11:39;;;;;;;1.87;1.17;;;;;;;3.80;93.64;93160.44;6110726;23;20158;-81
2023/11/04 06:14:05;;;;;;;1.17;1.00;;;;;;;3.75;93.46;93161.91;6110985;23;20570;-82
2023/11/04 06:16:34;;;;;;;2.03;1.27;;;;;;;3.74;93.75;93166.22;6134309;23;20175;-81
2023/11/04 06:19:00;;;;;;;1.40;1.30;;;;;;;3.63;94.09;93154.56;6136853;23;20795;-83
2023/11/04 06:21:25;;;;;;;3.07;1.43;;;;;;;3.62;94.40;93160.66;6111628;23;20243;-82
2023/11/04 06:23:50;;;;;;;2.27;1.50;;;;;;;3.64;93.63;93157.91;6112099;23;20190;-81
2023/11/04 06:26:22;;;;;;;2.60;1.50;;;;;;;3.62;95.10;93145.25;6112329;23;20157;-83
2023/11/04 06:28:48;;;;;;;2.30;1.30;;;;;;;3.68;94.17;93144.56;6108879;23;20251;-82
2023/11/04 06:31:14;;;;;;;2.27;1.50;;;;;;;3.57;95.00;93146.69;6133320;23;20183;-80
2023/11/04 06:33:40;;;;;;;2.10;1.40;;;;;;;3.61;95.19;93141.06;6132241;23;20159;-83
2023/11/04 06:36:05;;;;;;;3.20;1.60;;;;;;;3.58;95.41;93133.69;6107471;23;20175;-84
2023/11/04 06:38:31;;;;;;;1.40;1.23;;;;;;;3.72;95.27;93128.88;6158411;23;20246;-82
2023/11/04 06:40:56;;;;;;;1.40;1.27;;;;;;;3.70;95.63;93124.66;6107779;23;20159;-81
2023/11/04 06:43:21;;;;;;;1.83;1.47;;;;;;;3.77;95.15;93129.16;6131908;23;20155;-82
2023/11/04 06:45:47;;;;;;;1.57;1.20;;;;;;;3.78;95.95;93128.97;6131602;23;20154;-82
2023/11/04 06:48:12;;;;;;;1.30;1.20;;;;;;;3.89;96.06;93133.78;6131685;23;20190;-81
2023/11/04 06:50:37;;;;;;;3.63;1.37;;;;;;;3.94;96.31;93123.00;6132388;23;20233;-82
2023/11/04 06:53:03;;;;;;;1.60;1.30;;;;;;;4.01;95.83;93121.38;6108040;23;20160;-82
2023/11/04 06:55:29;;;;;;;1.50;1.40;;;;;;;4.06;95.56;93118.28;6106981;23;20593;-81
2023/11/04 06:57:55;;;;;;;2.40;1.50;;;;;;;4.12;95.12;93113.28;6132142;23;20528;-83
2023/11/04 07:00:23;;;;;;;2.33;1.70;;;;;;;4.18;95.22;93120.34;6132490;23;20290;-83
2023/11/04 07:02:48;;;;;;;4.40;1.70;;;;;;;4.24;94.17;93106.81;6156221;23;20178;-84
2023/11/04 07:05:14;;;;;;;2.07;1.27;;;;;;;4.31;94.36;93103.56;6106608;23;20604;-84
2023/11/04 07:07:39;;;;;;;3.53;2.00;;;;;;;4.27;93.98;93103.09;6108004;23;20166;-81
2023/11/04 07:10:06;;;;;;;2.10;1.90;;;;;;;4.35;94.23;93094.56;6131622;23;20171;-81
2023/11/04 07:12:35;;;;;;;2.23;2.00;;;;;;;4.36;94.11;93099.53;6131707;23;20250;-82
2023/11/04 07:15:01;;;;;;;1.80;1.67;;;;;;;4.51;93.76;93091.91;6107561;23;20215;-82
2023/11/04 07:17:26;;;;;;;2.20;1.60;;;;;;;4.52;93.53;93094.28;6106693;23;20162;-81
2023/11/04 07:19:52;;;;;;;3.30;1.60;;;;;;;4.67;93.32;93093.53;6132402;23;20178;-84
2023/11/04 07:22:18;;;;;;;2.83;1.63;;;;;;;4.79;92.47;93098.13;6131681;23;20158;-82
2023/11/04 07:24:43;;;;;;;1.83;1.60;;;;;;;4.67;92.73;93081.47;6131083;23;20165;-81
2023/11/04 07:27:09;;;;;;;1.77;1.50;;;;;;;4.84;92.09;93087.28;6107268;23;20178;-80
2023/11/04 07:29:34;;;;;;;2.00;1.50;;;;;;;4.82;91.90;93087.47;6106461;23;20206;-82
2023/11/04 07:31:59;;;;;;;3.50;1.50;;;;;;;4.95;91.39;93083.53;6130873;23;20221;-83
2023/11/04 07:34:30;;;;;;;1.60;1.50;;;;;;;5.04;91.20;93085.06;6106603;23;20163;-83
2023/11/04 07:36:56;;;;;;;2.07;1.80;;;;;;;5.10;90.80;93086.91;6130962;23;20233;-82
2023/11/04 07:39:21;;;;;;;1.80;1.60;;;;;;;5.24;90.50;93077.66;6104872;23;20175;-81
2023/11/04 07:41:48;;;;;;;1.67;1.57;;;;;;;5.26;90.10;93070.53;6128856;23;20159;-82
2023/11/04 07:44:13;;;;;;;1.70;1.60;;;;;;;5.33;89.79;93074.03;6129982;23;20679;-81
2023/11/04 07:46:40;;;;;;;1.97;1.60;;;;;;;5.36;89.72;93068.50;6129280;23;20150;-81
2023/11/04 07:49:05;;;;;;;2.43;1.60;;;;;;;5.40;89.97;93060.28;6129886;23;20180;-79
2023/11/04 07:51:31;;;;;;;1.83;1.60;;;;;;;5.42;89.49;93059.28;6129144;23;20159;-80
2023/11/04 07:53:56;;;;;;;1.63;1.40;;;;;;;5.65;88.73;93063.38;6129265;23;20220;-81
2023/11/04 07:56:22;;;;;;;1.60;1.50;;;;;;;5.64;88.48;93063.53;6103396;23;20182;-81
2023/11/04 07:58:47;;;;;;;1.53;1.43;;;;;;;5.64;88.72;93066.13;6104608;23;20186;-81
2023/11/04 08:01:17;;;;;;;1.50;1.40;;;;;;;5.58;88.61;93056.56;6104385;23;20174;-83
2023/11/04 08:03:42;;;;;;;1.97;1.27;;;;;;;5.74;88.17;93071.78;6106697;23;20158;-82
2023/11/04 08:06:08;;;;;;;1.40;1.30;;;;;;;5.76;87.54;93059.56;6129010;23;20481;-81
2023/11/04 08:08:33;;;;;;;1.80;1.70;;;;;;;5.94;86.75;93048.91;6129032;23;20191;-82
2023/11/04 08:10:58;;;;;;;1.60;1.50;;;;;;;5.85;87.57;93043.03;6129262;23;20161;-81
2023/11/04 08:13:24;;;;;;;2.37;2.17;;;;;;;5.92;87.45;93046.53;6129112;23;20162;-80
2023/11/04 08:15:49;;;;;;;1.93;1.70;;;;;;;5.97;87.03;93041.59;6128353;23;20629;-82
2023/11/04 08:18:14;;;;;;;1.40;1.30;;;;;;;6.05;86.65;93034.75;6128926;23;20158;-82
2023/11/04 08:20:42;;;;;;;1.83;1.40;;;;;;;5.87;87.16;93033.34;6106705;23;20255;-78
2023/11/04 08:23:07;;;;;;;1.20;1.10;;;;;;;5.85;86.84;93025.00;6128468;23;20163;-81
2023/11/04 08:25:33;;;;;;;2.13;1.50;;;;;;;6.05;86.17;93024.44;6128389;23;20679;-81
2023/11/04 08:27:58;;;;;;;1.33;1.23;;;;;;;5.95;86.43;93022.97;6103860;23;20226;-80
2023/11/04 08:30:23;;;;;;;1.67;1.20;;;;;;;5.99;86.63;93017.44;6129206;23;20520;-82
2023/11/04 08:32:50;;;;;;;1.40;1.30;;;;;;;6.11;85.86;93013.44;6103851;23;20251;-83
2023/11/04 08:35:15;;;;;;;2.20;1.30;;;;;;;6.36;85.30;93003.53;6120778;23;20198;-80
2023/11/04 08:37:40;;;;;;;1.50;1.23;;;;;;;6.37;85.08;93002.59;6154895;23;20155;-79
2023/11/04 08:40:06;;;;;;;1.20;1.10;;;;;;;6.43;85.28;93007.78;6155199;23;20191;-80
2023/11/04 08:42:33;;;;;;;1.90;1.67;;;;;;;6.74;84.42;93004.09;6128443;23;20155;-80
2023/11/04 08:44:58;;;;;;;2.70;1.33;;;;;;;7.10;82.94;93006.56;6110646;23;20242;-81
2023/11/04 08:47:24;;;;;;;1.50;1.40;;;;;;;6.93;82.87;93007.81;6107057;23;20159;-83
2023/11/04 08:49:49;;;;;;;1.50;1.40;;;;;;;7.09;82.53;92995.44;6130929;23;20179;-82
2023/11/04 08:52:15;;;;;;;1.60;1.50;;;;;;;7.46;81.63;92995.25;6130356;23;20155;-80
2023/11/04 08:54:40;;;;;;;1.50;1.40;;;;;;;7.53;81.37;92998.69;6129317;23;20213;-80
2023/11/04 08:57:06;;;;;;;2.73;1.60;;;;;;;7.44;81.83;92986.91;6130269;23;20160;-82
2023/11/04 08:59:31;;;;;;;2.00;1.80;;;;;;;7.59;80.97;92982.41;6130231;23;20211;-81
2023/11/04 09:01:56;;;;;;;2.30;1.70;;;;;;;7.66;80.77;92972.91;6130014;23;20155;-82
2023/11/04 09:04:22;;;;;;;1.50;1.40;;;;;;;7.55;79.83;92976.81;6129841;23;20242;-83
2023/11/04 09:06:47;;;;;;;1.70;1.43;;;;;;;7.47;79.39;92969.25;6129673;23;20147;-83
2023/11/04 09:09:12;;;;;;;1.50;1.40;;;;;;;7.43;79.22;92968.03;6105055;23;20187;-81
2023/11/04 09:11:39;;;;;;;2.60;1.40;;;;;;;7.40;79.68;92958.06;6105344;23;20195;-82
2023/11/04 09:14:04;;;;;;;2.07;1.50;;;;;;;7.43;79.74;92951.75;6131072;23;20278;-83
2023/11/04 09:16:33;;;;;;;1.53;1.30;;;;;;;7.54;78.87;92953.78;6105469;23;20183;-84
2023/11/04 09:18:59;;;;;;;1.47;1.37;;;;;;;7.30;79.84;92942.13;6106697;23;20279;-83
2023/11/04 09:21:25;;;;;;;1.33;1.10;;;;;;;7.52;79.45;92941.06;6106713;23;20159;-83
2023/11/04 09:23:51;;;;;;;1.20;1.07;;;;;;;7.38;79.65;92929.06;6106533;23;20171;-82
2023/11/04 09:26:17;;;;;;;1.40;1.20;;;;;;;7.42;79.91;92934.63;6106664;23;20166;-80
2023/11/04 09:28:42;;;;;;;1.90;1.30;;;;;;;7.28;80.34;92931.22;6131959;23;20152;-83
2023/11/04 09:31:07;;;;;;;2.37;1.20;;;;;;;7.49;79.99;92925.16;6105791;23;20174;-80
2023/11/04 09:33:34;;;;;;;1.53;1.20;;;;;;;7.82;79.20;92925.25;6129952;23;20155;-80
2023/11/04 09:35:59;;;;;;;2.30;1.20;;;;;;;7.68;79.22;92924.41;6129578;23;20250;-80
2023/11/04 09:38:26;;;;;;;1.27;1.10;;;;;;;7.86;78.54;92921.28;6132296;23;20159;-80
2023/11/04 09:40:51;;;;;;;1.10;1.00;;;;;;;8.17;77.96;92913.81;6131819;23;20151;-79
2023/11/04 09:43:17;;;;;;;1.60;1.10;;;;;;;8.25;77.39;92910.25;6105111;23;20654;-81
2023/11/04 09:45:44;;;;;;;1.53;1.20;;;;;;;8.07;76.97;92913.41;6105158;23;20155;-81
2023/11/04 09:48:09;;;;;;;1.87;1.10;;;;;;;8.27;76.02;92908.25;6105293;23;20237;-83
2023/11/04 09:50:35;;;;;;;2.80;1.27;;;;;;;8.38;76.10;92899.13;6105442;23;20186;-79
2023/11/04 09:53:07;;;;;;;1.17;1.07;;;;;;;8.61;75.19;92896.94;6105852;23;20258;-81
2023/11/04 09:55:32;;;;;;;1.10;0.93;;;;;;;8.68;75.23;92890.00;6129180;23;20171;-81
2023/11/04 09:57:58;;;;;;;1.30;1.20;;;;;;;8.57;74.72;92898.34;6130341;23;20167;-79
2023/11/04 10:00:23;;;;;;;2.10;1.00;;;;;;;8.45;74.51;92884.41;6130414;23;20182;-81
2023/11/04 10:02:49;;;;;;;1.50;1.20;;;;;;;8.31;75.51;92888.78;6156404;23;20171;-82
2023/11/04 10:05:14;;;;;;;1.63;1.43;;;;;;;8.28;74.88;92875.44;6129504;23;20155;-81
2023/11/04 10:07:40;;;;;;;1.20;1.00;;;;;;;8.46;74.92;92871.28;6106211;23;20593;-81
2023/11/04 10:10:07;;;;;;;3.00;2.50;;;;;;;8.32;74.92;92861.94;6157068;23;20175;-80
2023/11/04 10:12:32;;;;;;;7.63;4.80;;;;;;;8.48;75.08;92852.97;6133054;23;20159;-82
2023/11/04 10:14:58;;;;;;;1.43;1.30;;;;;;;8.58;74.50;92847.41;6132742;23;20750;-81
2023/11/04 10:17:23;;;;;;;2.80;1.10;;;;;;;8.30;75.89;92839.81;6131912;23;20178;-83
2023/11/04 10:19:48;;;;;;;1.20;1.10;;;;;;;8.33;75.21;92831.69;6106878;23;20180;-81
2023/11/04 10:22:14;;;;;;;1.27;1.03;;;;;;;8.37;74.74;92830.31;6106046;23;20182;-79
2023/11/04 10:24:40;;;;;;;1.40;1.17;;;;;;;8.34;74.86;92822.94;6129441;23;20162;-80
2023/11/04 10:27:05;;;;;;;2.10;1.53;;;;;;;8.12;75.76;92820.53;6105521;23;20241;-83
2023/11/04 10:29:31;;;;;;;3.27;1.13;;;;;;;8.07;76.45;92815.19;6104813;23;20273;-82
2023/11/04 10:32:01;;;;;;;2.20;1.37;;;;;;;8.09;75.78;92809.81;6106160;23;20162;-79
2023/11/04 10:34:30;;;;;;;3.07;1.20;;;;;;;8.01;76.40;92790.13;6106569;23;20226;-81
2023/11/04 10:36:55;;;;;;;1.50;1.40;;;;;;;8.19;76.00;92792.09;6107612;23;20520;-82
2023/11/04 10:39:22;;;;;;;3.87;3.33;;;;;;;8.00;76.94;92791.13;6130759;23;20181;-79
2023/11/04 10:41:59;;;;;;;2.87;2.67;;;;;;;8.37;75.81;92783.78;6130735;23;20591;-81
2023/11/04 10:44:28;;;;;;;1.73;1.43;;;;;;;8.36;75.90;92777.81;6129764;23;20596;-80
2023/11/04 10:47:20;;;;;;;2.87;1.90;;;;;;;8.41;75.56;92784.97;6106505;23;20156;-82
2023/11/04 10:50:06;;;;;;;1.93;1.10;;;;;;;8.39;75.32;92787.75;6122142;23;20230;-81
2023/11/04 10:52:36;;;;;;;1.73;1.63;;;;;;;8.47;75.11;92787.53;6130809;23;20223;-81
2023/11/04 10:55:06;;;;;;;3.27;1.60;;;;;;;8.56;75.25;92782.94;6129799;23;20187;-80
2023/11/04 10:57:49;;;;;;;2.87;2.63;;;;;;;8.46;74.98;92774.81;6157216;23;20159;-82
2023/11/04 11:00:15;;;;;;;1.80;1.70;;;;;;;8.72;74.23;92776.53;6106895;23;20245;-82
2023/11/04 11:02:45;;;;;;;1.97;1.40;;;;;;;8.38;74.01;92780.19;6106892;23;20159;-81
2023/11/04 11:05:27;;;;;;;2.93;2.57;;;;;;;8.74;73.86;92775.31;6106287;23;20600;-81
2023/11/04 11:07:53;;;;;;;2.87;2.20;;;;;;;8.40;74.37;92768.66;6127854;23;20189;-81
2023/11/04 11:10:19;;;;;;;2.10;1.60;;;;;;;8.44;74.61;92775.00;6130391;23;20175;-81
2023/11/04 11:13:22;;;;;;;2.60;1.33;;;;;;;8.09;75.17;92751.16;6105107;23;20164;-82
2023/11/04 11:15:48;;;;;;;2.13;1.30;;;;;;;8.27;75.78;92744.56;6104734;23;20187;-80
2023/11/04 11:18:24;;;;;;;1.80;1.50;;;;;;;8.30;74.87;92733.81;6130151;23;20158;-80
2023/11/04 11:20:49;;;;;;;1.60;1.50;;;;;;;8.42;75.00;92729.66;6131095;23;20257;-80
2023/11/04 11:23:25;;;;;;;1.37;1.27;;;;;;;8.50;73.83;92732.03;6107853;23;20218;-79
2023/11/04 11:25:51;;;;;;;1.37;1.27;;;;;;;8.47;73.67;92733.22;6104682;23;20151;-80
2023/11/04 11:28:20;;;;;;;2.00;1.47;;;;;;;8.48;73.53;92729.66;6128450;23;20538;-80
2023/11/04 11:30:52;;;;;;;3.37;1.40;;;;;;;8.55;73.29;92714.09;6104045;23;20530;-79
2023/11/04 11:33:24;;;;;;;1.37;1.27;;;;;;;8.48;73.87;92713.31;6128507;23;20238;-79
2023/11/04 11:36:06;;;;;;;1.20;1.07;;;;;;;8.44;73.46;92712.16;6104963;23;20182;-80